Time;durP1;ratioP1;P1;durP2;ratioP2;P2;SDS_P1;SDS_P2;PMS_P1;PMS_P2;Temp;Humidity;BMP_temperature;BMP_pressure;BME280_temperature;BME280_humidity;BME280_pressure;Samples;Min_cycle;Max_cycle;Signal;HPM_P1;HPM_P2
2022/03/03 00:00:15;;;;;;;12.10;6.55;;;;;;;;;;5057232;28;20020;-69
2022/03/03 00:02:41;;;;;;;16.60;8.75;;;;;;;;;;5056617;28;20021;-71
2022/03/03 00:05:07;;;;;;;12.38;8.32;;;;;;;;;;5056413;28;20485;-69
2022/03/03 00:07:34;;;;;;;15.02;8.85;;;;;;;;;;5056564;28;20025;-71
2022/03/03 00:10:00;;;;;;;18.30;10.10;;;;;;;;;;5039343;28;20049;-69
2022/03/03 00:12:26;;;;;;;14.85;9.07;;;;;;;;;;5056944;28;20036;-71
2022/03/03 00:14:52;;;;;;;13.20;8.73;;;;;;;;;;5056451;28;20017;-72
2022/03/03 00:17:18;;;;;;;14.13;8.00;;;;;;;;;;5056702;28;20051;-72
2022/03/03 00:19:44;;;;;;;11.15;7.55;;;;;;;;;;5056364;28;20017;-70
2022/03/03 00:22:11;;;;;;;10.93;6.55;;;;;;;;;;5056521;28;20021;-70
2022/03/03 00:24:37;;;;;;;15.10;8.30;;;;;;;;;;5056224;28;20059;-71
2022/03/03 00:27:03;;;;;;;11.18;6.28;;;;;;;;;;5056213;28;20533;-68
2022/03/03 00:29:29;;;;;;;11.48;6.65;;;;;;;;;;5056683;28;20112;-70
2022/03/03 00:31:55;;;;;;;9.73;5.68;;;;;;;;;;5056287;28;20148;-72
2022/03/03 00:34:21;;;;;;;12.98;6.43;;;;;;;;;;5056095;28;20100;-71
2022/03/03 00:36:47;;;;;;;9.70;6.07;;;;;;;;;;5056041;28;20473;-72
2022/03/03 00:39:13;;;;;;;10.52;6.10;;;;;;;;;;5055996;28;20107;-72
2022/03/03 00:41:39;;;;;;;9.35;5.93;;;;;;;;;;5055937;28;20396;-69
2022/03/03 00:44:06;;;;;;;13.32;6.30;;;;;;;;;;5056165;28;20465;-71
2022/03/03 00:46:33;;;;;;;9.90;5.65;;;;;;;;;;5055878;28;20474;-71
2022/03/03 00:48:59;;;;;;;13.57;6.43;;;;;;;;;;5055822;28;20021;-72
2022/03/03 00:51:25;;;;;;;10.88;6.85;;;;;;;;;;5055959;28;20071;-71
2022/03/03 00:53:51;;;;;;;12.20;6.35;;;;;;;;;;5056540;28;20371;-68
2022/03/03 00:56:18;;;;;;;11.90;6.28;;;;;;;;;;5055590;28;20424;-69
2022/03/03 00:58:44;;;;;;;12.35;7.18;;;;;;;;;;5055607;28;20055;-70
2022/03/03 01:01:10;;;;;;;10.65;6.05;;;;;;;;;;5054855;28;20029;-71
2022/03/03 01:03:36;;;;;;;12.15;6.40;;;;;;;;;;5055413;28;20534;-70
2022/03/03 01:06:02;;;;;;;11.90;6.00;;;;;;;;;;5055037;28;20048;-73
2022/03/03 01:08:28;;;;;;;12.50;5.80;;;;;;;;;;5055459;28;20397;-69
2022/03/03 01:10:54;;;;;;;10.80;5.80;;;;;;;;;;5055330;28;20029;-72
2022/03/03 01:13:22;;;;;;;11.68;5.75;;;;;;;;;;5055588;28;20021;-70
2022/03/03 01:15:48;;;;;;;10.15;5.65;;;;;;;;;;5055275;28;20102;-72
2022/03/03 01:18:14;;;;;;;10.30;5.75;;;;;;;;;;5055249;28;20102;-70
2022/03/03 01:20:40;;;;;;;8.95;6.05;;;;;;;;;;5055222;28;20029;-73
2022/03/03 01:23:06;;;;;;;9.85;5.57;;;;;;;;;;5055137;28;20036;-70
2022/03/03 01:25:32;;;;;;;10.23;5.28;;;;;;;;;;5055349;28;20484;-69
2022/03/03 01:27:59;;;;;;;15.05;6.30;;;;;;;;;;5037151;28;20124;-70
2022/03/03 01:30:25;;;;;;;14.52;6.03;;;;;;;;;;5054897;28;20056;-73
2022/03/03 01:32:51;;;;;;;10.48;6.07;;;;;;;;;;5055005;28;20021;-70
2022/03/03 01:35:17;;;;;;;10.52;5.88;;;;;;;;;;5054926;28;20500;-69
2022/03/03 01:37:43;;;;;;;10.77;6.47;;;;;;;;;;5054869;28;20052;-71
2022/03/03 01:40:09;;;;;;;10.45;6.45;;;;;;;;;;5054889;28;20489;-72
2022/03/03 01:42:35;;;;;;;11.32;6.25;;;;;;;;;;5055027;28;20032;-70
2022/03/03 01:45:01;;;;;;;10.95;6.13;;;;;;;;;;5055322;28;20029;-69
2022/03/03 01:47:28;;;;;;;11.45;6.82;;;;;;;;;;5054668;28;20021;-68
2022/03/03 01:49:55;;;;;;;12.07;6.82;;;;;;;;;;5054952;28;20078;-73
2022/03/03 01:52:21;;;;;;;12.70;6.55;;;;;;;;;;5054532;28;20039;-69
2022/03/03 01:54:47;;;;;;;12.18;7.53;;;;;;;;;;5036607;28;20028;-70
2022/03/03 01:57:17;;;;;;;12.82;6.50;;;;;;;;;;5054500;28;20030;-69
2022/03/03 01:59:43;;;;;;;11.73;6.40;;;;;;;;;;5054437;28;20031;-72
2022/03/03 02:02:10;;;;;;;12.10;6.55;;;;;;;;;;5054379;28;20108;-71
2022/03/03 02:04:38;;;;;;;11.52;6.38;;;;;;;;;;5054092;28;20041;-70
2022/03/03 02:07:04;;;;;;;9.60;6.20;;;;;;;;;;5054316;28;20039;-71
2022/03/03 02:09:30;;;;;;;11.23;6.43;;;;;;;;;;5054517;28;20079;-70
2022/03/03 02:11:56;;;;;;;11.65;6.55;;;;;;;;;;5054177;28;20394;-72
2022/03/03 02:14:22;;;;;;;12.63;6.40;;;;;;;;;;5053415;28;20462;-69
2022/03/03 02:16:48;;;;;;;10.52;6.03;;;;;;;;;;5054945;28;20381;-70
2022/03/03 02:19:15;;;;;;;11.82;5.93;;;;;;;;;;5054072;28;20021;-72
2022/03/03 02:21:41;;;;;;;11.32;5.47;;;;;;;;;;5054034;28;20434;-71
2022/03/03 02:24:07;;;;;;;10.70;6.30;;;;;;;;;;5054012;28;20378;-70
2022/03/03 02:26:33;;;;;;;9.65;5.97;;;;;;;;;;5053956;28;20374;-70
2022/03/03 02:28:59;;;;;;;9.68;5.50;;;;;;;;;;5053940;28;20021;-71
2022/03/03 02:31:25;;;;;;;9.95;5.05;;;;;;;;;;5053743;28;20447;-69
2022/03/03 02:33:51;;;;;;;7.72;5.03;;;;;;;;;;5053790;28;20029;-70
2022/03/03 02:36:22;;;;;;;8.57;5.18;;;;;;;;;;5053796;28;20074;-71
2022/03/03 02:38:49;;;;;;;9.30;5.40;;;;;;;;;;5054055;28;20047;-70
2022/03/03 02:41:15;;;;;;;8.50;4.70;;;;;;;;;;5053695;28;20032;-71
2022/03/03 02:43:41;;;;;;;12.15;5.07;;;;;;;;;;5053919;28;20485;-70
2022/03/03 02:46:08;;;;;;;9.85;5.10;;;;;;;;;;5053880;28;20074;-71
2022/03/03 02:48:34;;;;;;;10.93;5.13;;;;;;;;;;5053842;28;20392;-71
2022/03/03 02:51:00;;;;;;;10.88;5.50;;;;;;;;;;5053450;28;20036;-71
2022/03/03 02:53:26;;;;;;;11.70;5.50;;;;;;;;;;5053749;28;20078;-72
2022/03/03 02:55:52;;;;;;;9.20;4.80;;;;;;;;;;5053451;28;20017;-71
2022/03/03 02:58:19;;;;;;;11.73;4.78;;;;;;;;;;5053731;28;20025;-71
2022/03/03 03:00:47;;;;;;;7.57;4.55;;;;;;;;;;5053443;28;20504;-71
2022/03/03 03:03:13;;;;;;;8.65;4.45;;;;;;;;;;5053362;28;20021;-69
2022/03/03 03:05:39;;;;;;;11.48;5.65;;;;;;;;;;5052946;28;20044;-68
2022/03/03 03:08:06;;;;;;;9.65;5.20;;;;;;;;;;5053591;28;20036;-69
2022/03/03 03:10:32;;;;;;;8.98;4.70;;;;;;;;;;5035366;28;20017;-70
2022/03/03 03:12:58;;;;;;;10.38;5.10;;;;;;;;;;5053185;28;20032;-68
2022/03/03 03:15:24;;;;;;;8.95;4.93;;;;;;;;;;5053214;28;20020;-73
2022/03/03 03:17:50;;;;;;;11.55;5.05;;;;;;;;;;5035374;28;20478;-72
2022/03/03 03:20:17;;;;;;;12.90;5.13;;;;;;;;;;5053172;28;20044;-71
2022/03/03 03:22:43;;;;;;;10.18;4.22;;;;;;;;;;5053149;28;20029;-72
2022/03/03 03:25:10;;;;;;;8.90;4.43;;;;;;;;;;5052650;28;20083;-71
2022/03/03 03:27:36;;;;;;;9.75;4.72;;;;;;;;;;5053099;28;20452;-72
2022/03/03 03:30:03;;;;;;;8.27;4.55;;;;;;;;;;5053087;28;20025;-69
2022/03/03 03:32:29;;;;;;;10.05;4.60;;;;;;;;;;5053569;28;20029;-68
2022/03/03 03:34:55;;;;;;;10.15;5.30;;;;;;;;;;5053320;28;20024;-69
2022/03/03 03:37:21;;;;;;;8.73;4.10;;;;;;;;;;5052974;28;20029;-69
2022/03/03 03:39:47;;;;;;;7.40;4.22;;;;;;;;;;5053280;28;20148;-70
2022/03/03 03:42:13;;;;;;;10.50;4.93;;;;;;;;;;5053276;28;20065;-71
2022/03/03 03:44:39;;;;;;;11.27;4.60;;;;;;;;;;5052937;28;20053;-71
2022/03/03 03:47:06;;;;;;;9.07;4.20;;;;;;;;;;5052934;28;20033;-69
2022/03/03 03:49:33;;;;;;;8.60;4.28;;;;;;;;;;5052930;28;20029;-70
2022/03/03 03:51:59;;;;;;;9.93;5.07;;;;;;;;;;5052822;28;20025;-70
2022/03/03 03:54:25;;;;;;;9.35;4.28;;;;;;;;;;5052835;28;20055;-72
2022/03/03 03:56:51;;;;;;;8.93;4.85;;;;;;;;;;5052873;28;20060;-70
2022/03/03 03:59:17;;;;;;;9.82;4.50;;;;;;;;;;5052768;28;20028;-71
2022/03/03 04:01:43;;;;;;;8.30;4.63;;;;;;;;;;5052752;28;20107;-70
2022/03/03 04:04:09;;;;;;;9.00;4.80;;;;;;;;;;5052804;28;20045;-68
2022/03/03 04:06:36;;;;;;;13.18;5.43;;;;;;;;;;5053050;28;20083;-71
2022/03/03 04:09:02;;;;;;;10.48;4.50;;;;;;;;;;5034868;28;20032;-71
2022/03/03 04:11:29;;;;;;;8.48;4.45;;;;;;;;;;5052895;28;20478;-69
2022/03/03 04:13:56;;;;;;;9.77;5.13;;;;;;;;;;5052641;28;20029;-72
2022/03/03 04:16:23;;;;;;;9.45;4.47;;;;;;;;;;5052655;28;20389;-69
2022/03/03 04:18:49;;;;;;;10.85;4.50;;;;;;;;;;5052631;28;20074;-69
2022/03/03 04:21:15;;;;;;;10.63;4.90;;;;;;;;;;5052599;28;20527;-70
2022/03/03 04:23:41;;;;;;;10.75;4.63;;;;;;;;;;5052840;28;20035;-69
2022/03/03 04:26:07;;;;;;;11.70;5.03;;;;;;;;;;5052572;28;20056;-69
2022/03/03 04:28:33;;;;;;;11.65;4.90;;;;;;;;;;5052523;28;20481;-70
2022/03/03 04:30:59;;;;;;;9.25;4.82;;;;;;;;;;5034554;28;20493;-68
2022/03/03 04:33:25;;;;;;;9.10;5.45;;;;;;;;;;5052466;28;20023;-70
2022/03/03 04:35:51;;;;;;;12.05;5.43;;;;;;;;;;5052463;28;20028;-69
2022/03/03 04:38:17;;;;;;;11.23;5.93;;;;;;;;;;5055762;28;20466;-72
2022/03/03 04:40:43;;;;;;;10.93;6.10;;;;;;;;;;5055968;28;20461;-71
2022/03/03 04:43:09;;;;;;;11.70;6.05;;;;;;;;;;5055943;28;20035;-72
2022/03/03 04:45:35;;;;;;;11.75;6.30;;;;;;;;;;5056417;28;20033;-70
2022/03/03 04:48:02;;;;;;;12.98;6.10;;;;;;;;;;5055851;28;20021;-72
2022/03/03 04:50:28;;;;;;;13.23;7.03;;;;;;;;;;5055724;28;20028;-71
2022/03/03 04:52:54;;;;;;;13.43;6.15;;;;;;;;;;5055776;28;20024;-73
2022/03/03 04:55:20;;;;;;;15.18;7.53;;;;;;;;;;5055611;28;20025;-70
2022/03/03 04:57:46;;;;;;;12.05;6.82;;;;;;;;;;5055651;28;20029;-71
2022/03/03 05:00:12;;;;;;;13.80;7.53;;;;;;;;;;5037736;28;20071;-70
2022/03/03 05:02:38;;;;;;;13.55;7.32;;;;;;;;;;5055867;28;20029;-70
2022/03/03 05:05:05;;;;;;;12.52;6.93;;;;;;;;;;5055347;28;20049;-71
2022/03/03 05:07:31;;;;;;;13.10;6.22;;;;;;;;;;5055785;28;20017;-70
2022/03/03 05:09:57;;;;;;;17.15;8.48;;;;;;;;;;5055412;28;20029;-71
2022/03/03 05:12:23;;;;;;;14.88;6.85;;;;;;;;;;5055604;28;20032;-68
2022/03/03 05:14:50;;;;;;;14.00;6.53;;;;;;;;;;5055359;28;20025;-71
2022/03/03 05:17:16;;;;;;;14.25;6.93;;;;;;;;;;5055539;28;20025;-71
2022/03/03 05:19:42;;;;;;;14.30;7.35;;;;;;;;;;5055501;28;20056;-72
2022/03/03 05:22:08;;;;;;;14.48;6.97;;;;;;;;;;5055459;28;20056;-71
2022/03/03 05:24:34;;;;;;;12.80;6.60;;;;;;;;;;5055151;28;20108;-70
2022/03/03 05:27:00;;;;;;;14.35;6.95;;;;;;;;;;5055093;28;20036;-72
2022/03/03 05:29:27;;;;;;;14.23;6.93;;;;;;;;;;5055332;28;20420;-70
2022/03/03 05:31:57;;;;;;;12.90;6.82;;;;;;;;;;5054930;28;20473;-71
2022/03/03 05:34:23;;;;;;;15.65;7.47;;;;;;;;;;5055008;28;20488;-72
2022/03/03 05:36:49;;;;;;;11.05;6.75;;;;;;;;;;5054923;28;20032;-70
2022/03/03 05:39:16;;;;;;;15.10;6.25;;;;;;;;;;5054958;28;20104;-72
2022/03/03 05:41:43;;;;;;;12.55;5.80;;;;;;;;;;5054877;28;20067;-68
2022/03/03 05:44:12;;;;;;;13.15;5.75;;;;;;;;;;5055364;28;20079;-71
2022/03/03 05:46:39;;;;;;;11.23;6.07;;;;;;;;;;5054824;28;20168;-70
2022/03/03 05:49:06;;;;;;;15.40;6.70;;;;;;;;;;5054406;28;20033;-70
2022/03/03 05:51:32;;;;;;;12.38;6.88;;;;;;;;;;5054563;28;20027;-68
2022/03/03 05:53:59;;;;;;;12.40;6.78;;;;;;;;;;5054630;28;20096;-70
2022/03/03 05:56:25;;;;;;;10.50;5.03;;;;;;;;;;5054500;28;20100;-71
2022/03/03 05:58:52;;;;;;;10.10;4.70;;;;;;;;;;5054476;28;20025;-69
2022/03/03 06:01:18;;;;;;;13.07;5.30;;;;;;;;;;5054470;28;20444;-69
2022/03/03 06:03:50;;;;;;;9.13;5.05;;;;;;;;;;5054507;28;20100;-72
2022/03/03 06:06:22;;;;;;;10.73;5.07;;;;;;;;;;5054402;28;20086;-68
2022/03/03 06:08:57;;;;;;;11.77;5.75;;;;;;;;;;5054618;28;20067;-72
2022/03/03 06:11:25;;;;;;;8.90;4.30;;;;;;;;;;5054253;28;20017;-72
2022/03/03 06:13:53;;;;;;;11.82;4.47;;;;;;;;;;5054772;28;20052;-71
2022/03/03 06:16:19;;;;;;;9.77;5.65;;;;;;;;;;5054732;28;20029;-71
2022/03/03 06:18:46;;;;;;;10.48;3.70;;;;;;;;;;5054695;28;20155;-71
2022/03/03 06:21:12;;;;;;;9.00;4.22;;;;;;;;;;5054056;28;20029;-69
2022/03/03 06:23:38;;;;;;;12.90;4.00;;;;;;;;;;5054576;28;20035;-71
2022/03/03 06:26:05;;;;;;;18.65;7.13;;;;;;;;;;5053988;28;20104;-72
2022/03/03 06:28:32;;;;;;;26.77;13.13;;;;;;;;;;5054238;28;20025;-71
2022/03/03 06:30:58;;;;;;;14.98;7.10;;;;;;;;;;5053817;28;20543;-68
2022/03/03 06:33:25;;;;;;;17.88;9.40;;;;;;;;;;5053873;28;20029;-72
2022/03/03 06:35:51;;;;;;;6.53;3.08;;;;;;;;;;5054372;28;20025;-72
2022/03/03 06:38:17;;;;;;;6.63;3.03;;;;;;;;;;5054068;28;20531;-69
2022/03/03 06:40:43;;;;;;;8.02;3.20;;;;;;;;;;5035854;28;20116;-70
2022/03/03 06:43:09;;;;;;;9.43;4.15;;;;;;;;;;5053941;28;20154;-71
2022/03/03 06:45:35;;;;;;;16.73;8.23;;;;;;;;;;5053913;28;20028;-71
2022/03/03 06:48:02;;;;;;;8.02;4.40;;;;;;;;;;5053631;28;20021;-71
2022/03/03 06:50:29;;;;;;;8.23;3.97;;;;;;;;;;5053452;28;20144;-70
2022/03/03 06:52:55;;;;;;;7.72;3.15;;;;;;;;;;5053515;28;20529;-71
2022/03/03 06:55:23;;;;;;;18.10;11.13;;;;;;;;;;5053393;28;20044;-71
2022/03/03 06:57:57;;;;;;;6.40;3.40;;;;;;;;;;5053428;28;20397;-69
2022/03/03 07:00:27;;;;;;;6.68;3.70;;;;;;;;;;5052781;28;20027;-70
2022/03/03 07:02:53;;;;;;;;;;;;;;;;;;5054387;28;20112;-72
2022/03/03 07:05:20;;;;;;;7.82;4.53;;;;;;;;;;5053257;28;19960;-69
2022/03/03 07:07:47;;;;;;;8.65;4.05;;;;;;;;;;5053584;28;20025;-73
2022/03/03 07:10:14;;;;;;;9.90;4.65;;;;;;;;;;5053289;28;20031;-70
2022/03/03 07:12:40;;;;;;;9.27;5.38;;;;;;;;;;5053178;28;20032;-73
2022/03/03 07:15:06;;;;;;;7.65;4.18;;;;;;;;;;5053203;28;20547;-73
2022/03/03 07:17:47;;;;;;;6.28;3.08;;;;;;;;;;5053210;28;20077;-72
2022/03/03 07:20:33;;;;;;;8.20;3.20;;;;;;;;;;5053781;28;20032;-72
2022/03/03 07:23:02;;;;;;;6.55;3.53;;;;;;;;;;5003406;28;20033;-70
2022/03/03 07:25:39;;;;;;;7.13;3.47;;;;;;;;;;5053181;28;20100;-70
2022/03/03 07:28:06;;;;;;;5.88;3.15;;;;;;;;;;5053601;28;20385;-71
2022/03/03 07:30:33;;;;;;;6.72;3.25;;;;;;;;;;5053044;28;20099;-70
2022/03/03 07:33:18;;;;;;;10.10;5.05;;;;;;;;;;5053217;28;20021;-70
2022/03/03 07:35:46;;;;;;;8.80;2.97;;;;;;;;;;5053737;28;20086;-71
2022/03/03 07:38:19;;;;;;;4.65;2.75;;;;;;;;;;5053741;28;20148;-73
2022/03/03 07:40:48;;;;;;;6.75;3.42;;;;;;;;;;5053317;28;20021;-72
2022/03/03 07:43:14;;;;;;;7.60;4.57;;;;;;;;;;5053617;28;20017;-70
2022/03/03 07:45:41;;;;;;;9.13;4.75;;;;;;;;;;5053452;28;20025;-71
2022/03/03 07:48:07;;;;;;;6.40;4.05;;;;;;;;;;5053214;28;20071;-71
2022/03/03 07:50:39;;;;;;;5.30;3.08;;;;;;;;;;5052844;28;20025;-71
2022/03/03 07:53:07;;;;;;;4.70;2.78;;;;;;;;;;5052708;28;20017;-70
2022/03/03 07:55:35;;;;;;;7.78;4.65;;;;;;;;;;5050644;28;20100;-71
2022/03/03 07:58:02;;;;;;;10.13;5.50;;;;;;;;;;5053245;28;20017;-70
2022/03/03 08:00:32;;;;;;;4.30;2.47;;;;;;;;;;5052456;28;20108;-72
2022/03/03 08:02:59;;;;;;;9.10;3.97;;;;;;;;;;5033343;28;20036;-71
2022/03/03 08:05:29;;;;;;;7.53;3.75;;;;;;;;;;5052589;28;20040;-71
2022/03/03 08:07:56;;;;;;;6.32;4.28;;;;;;;;;;5052675;28;20473;-70
2022/03/03 08:10:24;;;;;;;5.38;2.33;;;;;;;;;;5052663;28;20055;-70
2022/03/03 08:12:54;;;;;;;5.10;3.33;;;;;;;;;;5056425;28;20047;-72
2022/03/03 08:15:20;;;;;;;5.87;3.60;;;;;;;;;;5056018;28;20029;-71
2022/03/03 08:17:51;;;;;;;9.23;3.88;;;;;;;;;;5056405;28;20744;-70
2022/03/03 08:20:17;;;;;;;6.85;3.60;;;;;;;;;;5056169;28;20017;-69
2022/03/03 08:22:44;;;;;;;5.15;2.88;;;;;;;;;;5055956;28;20490;-70
2022/03/03 08:25:11;;;;;;;3.58;2.33;;;;;;;;;;5054971;28;20029;-72
2022/03/03 08:27:37;;;;;;;5.68;3.17;;;;;;;;;;5055128;28;20501;-73
2022/03/03 08:30:04;;;;;;;5.00;2.90;;;;;;;;;;5054645;28;20526;-71
2022/03/03 08:32:49;;;;;;;5.30;2.63;;;;;;;;;;5054517;28;20428;-71
2022/03/03 08:35:15;;;;;;;5.55;3.05;;;;;;;;;;5054243;28;20047;-68
2022/03/03 08:37:43;;;;;;;4.30;2.65;;;;;;;;;;5055731;28;20017;-66
2022/03/03 08:40:11;;;;;;;7.75;3.35;;;;;;;;;;5055994;28;20369;-66
2022/03/03 08:42:38;;;;;;;6.13;2.85;;;;;;;;;;5055805;28;20078;-69
2022/03/03 08:45:06;;;;;;;6.10;2.55;;;;;;;;;;5055991;28;20108;-70
2022/03/03 08:47:32;;;;;;;4.95;2.30;;;;;;;;;;5055910;28;20063;-69
2022/03/03 08:49:59;;;;;;;7.50;2.92;;;;;;;;;;5056056;28;20025;-72
2022/03/03 08:52:26;;;;;;;4.43;2.30;;;;;;;;;;5055682;28;20033;-70
2022/03/03 08:54:52;;;;;;;6.50;2.50;;;;;;;;;;5055691;28;20071;-73
2022/03/03 08:57:18;;;;;;;4.60;2.47;;;;;;;;;;5055949;28;20029;-69
2022/03/03 08:59:44;;;;;;;4.78;2.17;;;;;;;;;;5055701;28;20021;-70
2022/03/03 09:02:12;;;;;;;7.00;2.05;;;;;;;;;;5055514;28;20478;-70
2022/03/03 09:04:38;;;;;;;5.35;2.20;;;;;;;;;;5055287;28;20060;-72
2022/03/03 09:07:04;;;;;;;4.00;2.00;;;;;;;;;;5055535;28;20501;-69
2022/03/03 09:09:30;;;;;;;5.15;2.05;;;;;;;;;;5055510;28;20616;-71
2022/03/03 09:11:56;;;;;;;7.20;2.35;;;;;;;;;;5055443;28;20068;-72
2022/03/03 09:14:22;;;;;;;3.38;2.10;;;;;;;;;;5055765;28;20044;-69
2022/03/03 09:16:49;;;;;;;3.60;1.92;;;;;;;;;;5055359;28;20106;-70
2022/03/03 09:19:15;;;;;;;4.28;1.98;;;;;;;;;;5055345;28;20100;-69
2022/03/03 09:21:41;;;;;;;5.07;2.42;;;;;;;;;;5055787;28;20029;-69
2022/03/03 09:24:08;;;;;;;4.72;2.25;;;;;;;;;;5054472;28;20025;-72
2022/03/03 09:26:35;;;;;;;3.47;1.85;;;;;;;;;;5054082;28;20025;-71
2022/03/03 09:29:02;;;;;;;3.10;1.88;;;;;;;;;;5054381;28;20017;-69
2022/03/03 09:31:28;;;;;;;5.10;1.83;;;;;;;;;;5053645;28;20072;-73
2022/03/03 09:33:54;;;;;;;4.07;1.95;;;;;;;;;;5053997;28;20021;-71
2022/03/03 09:36:20;;;;;;;4.45;1.92;;;;;;;;;;5053915;28;20036;-70
2022/03/03 09:38:46;;;;;;;5.07;2.10;;;;;;;;;;5054834;28;20416;-69
2022/03/03 09:41:12;;;;;;;4.95;2.00;;;;;;;;;;5055234;28;20056;-71
2022/03/03 09:43:42;;;;;;;2.90;1.73;;;;;;;;;;5055098;28;20028;-72
2022/03/03 09:46:08;;;;;;;4.05;2.00;;;;;;;;;;5055115;28;20033;-69
2022/03/03 09:48:35;;;;;;;3.28;1.50;;;;;;;;;;5054789;28;20028;-70
2022/03/03 09:51:01;;;;;;;4.57;1.90;;;;;;;;;;5036866;28;20028;-69
2022/03/03 09:53:27;;;;;;;4.03;1.70;;;;;;;;;;5055212;28;20024;-69
2022/03/03 09:55:53;;;;;;;2.30;1.77;;;;;;;;;;5055110;28;20362;-70
2022/03/03 09:58:19;;;;;;;2.70;1.50;;;;;;;;;;5054717;28;20036;-69
2022/03/03 10:00:46;;;;;;;5.35;2.28;;;;;;;;;;5053769;28;20056;-71
2022/03/03 10:03:16;;;;;;;2.78;1.70;;;;;;;;;;5053763;28;20047;-70
2022/03/03 10:05:47;;;;;;;2.45;1.83;;;;;;;;;;5053395;28;20506;-68
2022/03/03 10:08:20;;;;;;;2.08;1.33;;;;;;;;;;5053625;28;20024;-68
2022/03/03 10:10:50;;;;;;;2.13;1.65;;;;;;;;;;5053621;28;20025;-71
2022/03/03 10:13:18;;;;;;;2.92;1.55;;;;;;;;;;5053653;28;20059;-71
2022/03/03 10:15:45;;;;;;;1.73;1.08;;;;;;;;;;5054756;28;20108;-70
2022/03/03 10:18:12;;;;;;;1.48;1.10;;;;;;;;;;5054222;28;20023;-72
2022/03/03 10:20:46;;;;;;;1.50;1.00;;;;;;;;;;5054170;28;20393;-70
2022/03/03 10:23:13;;;;;;;1.75;1.20;;;;;;;;;;5054387;28;20016;-68
2022/03/03 10:25:41;;;;;;;1.48;0.98;;;;;;;;;;5054043;28;20435;-71
2022/03/03 10:28:16;;;;;;;6.25;1.40;;;;;;;;;;5053969;28;20024;-70
2022/03/03 10:30:58;;;;;;;3.80;2.10;;;;;;;;;;5053851;28;20028;-71
2022/03/03 10:33:25;;;;;;;2.10;1.52;;;;;;;;;;5053783;28;20104;-70
2022/03/03 10:35:58;;;;;;;11.18;9.30;;;;;;;;;;5053043;28;20052;-71
2022/03/03 10:38:24;;;;;;;8.20;6.97;;;;;;;;;;5054087;28;20067;-69
2022/03/03 10:40:50;;;;;;;3.90;3.40;;;;;;;;;;5053704;28;20032;-70
2022/03/03 10:43:16;;;;;;;0.70;0.70;;;;;;;;;;5053603;28;20524;-72
2022/03/03 10:45:59;;;;;;;0.90;0.90;;;;;;;;;;5053665;28;20029;-71
2022/03/03 10:48:26;;;;;;;1.98;1.10;;;;;;;;;;5053617;28;20047;-70
2022/03/03 10:50:54;;;;;;;1.77;1.40;;;;;;;;;;5053545;28;20431;-70
2022/03/03 10:53:21;;;;;;;2.05;1.10;;;;;;;;;;5053581;28;20483;-70
2022/03/03 10:56:07;;;;;;;2.22;1.80;;;;;;;;;;5053204;28;20032;-69
2022/03/03 10:58:52;;;;;;;1.75;1.27;;;;;;;;;;5054058;28;20083;-70
2022/03/03 11:01:28;;;;;;;1.25;1.10;;;;;;;;;;5053664;28;20025;-68
2022/03/03 11:03:55;;;;;;;0.73;0.55;;;;;;;;;;5053357;28;20049;-70
2022/03/03 11:06:25;;;;;;;1.23;0.60;;;;;;;;;;5053211;28;20067;-69
2022/03/03 11:08:53;;;;;;;0.70;0.45;;;;;;;;;;5052741;28;20032;-68
2022/03/03 11:11:19;;;;;;;2.47;0.93;;;;;;;;;;5052572;28;20029;-68
2022/03/03 11:13:48;;;;;;;3.60;0.63;;;;;;;;;;5053483;28;20119;-71
2022/03/03 11:16:21;;;;;;;2.92;0.98;;;;;;;;;;5034532;28;20074;-69
2022/03/03 11:18:47;;;;;;;2.45;0.90;;;;;;;;;;5051533;28;20035;-71
2022/03/03 11:21:14;;;;;;;2.10;0.75;;;;;;;;;;5052537;28;20028;-71
2022/03/03 11:23:47;;;;;;;2.15;0.98;;;;;;;;;;5052776;28;20032;-69
2022/03/03 11:26:25;;;;;;;1.63;1.20;;;;;;;;;;5052790;28;20025;-70
2022/03/03 11:29:00;;;;;;;3.33;1.30;;;;;;;;;;5052823;28;20567;-69
2022/03/03 11:31:30;;;;;;;1.73;0.98;;;;;;;;;;5052878;28;20067;-68
2022/03/03 11:34:16;;;;;;;3.28;1.20;;;;;;;;;;5053064;28;20500;-69
2022/03/03 11:36:44;;;;;;;1.30;0.85;;;;;;;;;;5052956;28;20059;-70
2022/03/03 11:39:10;;;;;;;3.67;0.90;;;;;;;;;;5053302;28;20047;-69
2022/03/03 11:41:46;;;;;;;4.55;1.10;;;;;;;;;;5052982;28;20370;-68
2022/03/03 11:44:14;;;;;;;2.72;1.10;;;;;;;;;;5053484;28;20473;-67
2022/03/03 11:46:46;;;;;;;4.82;1.73;;;;;;;;;;5055631;28;20473;-68
2022/03/03 11:49:13;;;;;;;3.50;1.02;;;;;;;;;;5057000;28;20031;-70
2022/03/03 11:51:39;;;;;;;5.20;1.42;;;;;;;;;;5056861;28;20596;-68
2022/03/03 11:54:09;;;;;;;8.15;1.75;;;;;;;;;;5056892;28;20021;-70
2022/03/03 11:56:35;;;;;;;5.13;1.40;;;;;;;;;;5056905;28;20555;-68
2022/03/03 11:59:11;;;;;;;7.13;1.65;;;;;;;;;;5056791;28;20025;-68
2022/03/03 12:01:56;;;;;;;8.38;1.52;;;;;;;;;;5056737;28;20021;-69
2022/03/03 12:04:25;;;;;;;9.95;1.65;;;;;;;;;;5056556;28;20059;-70
2022/03/03 12:06:51;;;;;;;6.93;1.40;;;;;;;;;;5056933;28;20017;-70
2022/03/03 12:09:18;;;;;;;4.28;1.42;;;;;;;;;;5056614;28;20079;-71
2022/03/03 12:11:44;;;;;;;5.10;1.38;;;;;;;;;;5056488;28;20021;-69
2022/03/03 12:14:29;;;;;;;6.30;1.42;;;;;;;;;;5056453;28;20027;-69
2022/03/03 12:17:16;;;;;;;4.65;1.55;;;;;;;;;;5057619;28;20017;-71
2022/03/03 12:19:42;;;;;;;5.93;1.60;;;;;;;;;;5056353;28;20412;-69
2022/03/03 12:22:23;;;;;;;3.50;1.45;;;;;;;;;;5056344;28;20107;-70
2022/03/03 12:24:49;;;;;;;5.22;1.30;;;;;;;;;;5056641;28;20024;-69
2022/03/03 12:27:15;;;;;;;6.55;1.88;;;;;;;;;;5056266;28;20074;-70
2022/03/03 12:29:49;;;;;;;6.75;1.60;;;;;;;;;;5056218;28;20112;-69
2022/03/03 12:32:32;;;;;;;5.75;1.50;;;;;;;;;;5037954;28;20071;-68
2022/03/03 12:35:03;;;;;;;4.35;1.27;;;;;;;;;;5056638;28;20350;-70
2022/03/03 12:37:31;;;;;;;4.00;1.30;;;;;;;;;;5056561;28;20032;-69
2022/03/03 12:40:00;;;;;;;6.30;2.10;;;;;;;;;;5056582;28;20100;-70
2022/03/03 12:42:27;;;;;;;4.85;1.65;;;;;;;;;;5055936;28;20025;-69
2022/03/03 12:44:54;;;;;;;4.93;1.10;;;;;;;;;;5055724;28;20047;-70
2022/03/03 12:47:30;;;;;;;6.47;1.33;;;;;;;;;;5056078;28;20094;-70
2022/03/03 12:49:56;;;;;;;6.20;1.80;;;;;;;;;;5055992;28;20039;-69
2022/03/03 12:52:23;;;;;;;7.15;2.00;;;;;;;;;;5055843;28;20367;-70
2022/03/03 12:54:52;;;;;;;9.95;2.20;;;;;;;;;;5055106;28;20086;-71
2022/03/03 12:57:26;;;;;;;6.72;2.28;;;;;;;;;;5053684;28;20059;-71
2022/03/03 12:59:52;;;;;;;4.93;1.40;;;;;;;;;;5055513;28;20096;-72
2022/03/03 13:02:18;;;;;;;5.53;1.40;;;;;;;;;;5054723;28;20064;-72
2022/03/03 13:04:45;;;;;;;10.02;1.75;;;;;;;;;;5054218;28;20547;-69
2022/03/03 13:07:11;;;;;;;8.73;1.95;;;;;;;;;;5054936;28;20055;-72
2022/03/03 13:09:37;;;;;;;4.55;1.40;;;;;;;;;;5055288;28;20159;-71
2022/03/03 13:12:03;;;;;;;5.18;1.40;;;;;;;;;;5054539;28;20078;-69
2022/03/03 13:14:30;;;;;;;11.20;2.30;;;;;;;;;;5055091;28;20059;-71
2022/03/03 13:16:56;;;;;;;8.70;2.00;;;;;;;;;;5055828;28;20037;-70
2022/03/03 13:19:22;;;;;;;6.32;1.88;;;;;;;;;;5055371;28;20418;-72
2022/03/03 13:21:48;;;;;;;7.88;1.83;;;;;;;;;;5055226;28;20112;-69
2022/03/03 13:24:14;;;;;;;10.30;2.72;;;;;;;;;;5054013;28;20027;-69
2022/03/03 13:26:42;;;;;;;10.23;1.92;;;;;;;;;;5055212;28;20444;-71
2022/03/03 13:29:12;;;;;;;6.18;1.92;;;;;;;;;;5037217;28;20041;-68
2022/03/03 13:31:38;;;;;;;12.68;2.47;;;;;;;;;;5054032;28;20021;-69
2022/03/03 13:34:07;;;;;;;8.20;2.45;;;;;;;;;;5054297;28;20025;-71
2022/03/03 13:36:41;;;;;;;8.70;1.90;;;;;;;;;;5054484;28;20013;-68
2022/03/03 13:39:09;;;;;;;9.55;2.13;;;;;;;;;;5054905;28;20058;-68
2022/03/03 13:41:37;;;;;;;8.98;2.42;;;;;;;;;;5054916;28;20017;-68
2022/03/03 13:44:12;;;;;;;7.18;2.33;;;;;;;;;;5054563;28;20485;-68
2022/03/03 13:46:38;;;;;;;10.70;2.65;;;;;;;;;;5054330;28;20036;-68
2022/03/03 13:49:05;;;;;;;8.20;2.40;;;;;;;;;;5054796;28;20399;-68
2022/03/03 13:51:31;;;;;;;9.98;2.58;;;;;;;;;;5054450;28;20028;-68
2022/03/03 13:53:57;;;;;;;13.55;2.38;;;;;;;;;;5054989;28;20508;-67
2022/03/03 13:56:30;;;;;;;9.73;2.78;;;;;;;;;;5054190;28;20049;-68
2022/03/03 13:59:15;;;;;;;12.85;2.90;;;;;;;;;;5053694;28;20092;-69
2022/03/03 14:01:42;;;;;;;11.48;2.55;;;;;;;;;;5054807;28;20397;-68
2022/03/03 14:04:20;;;;;;;13.55;3.60;;;;;;;;;;5054057;28;20037;-68
2022/03/03 14:06:46;;;;;;;15.80;3.00;;;;;;;;;;5054970;28;20064;-68
2022/03/03 14:09:25;;;;;;;19.95;4.03;;;;;;;;;;5054052;28;20074;-69
2022/03/03 14:11:51;;;;;;;16.42;3.17;;;;;;;;;;5054874;28;20025;-68
2022/03/03 14:14:21;;;;;;;10.80;3.35;;;;;;;;;;5054369;28;20088;-68
2022/03/03 14:16:50;;;;;;;11.48;2.65;;;;;;;;;;5053561;28;20045;-68
2022/03/03 14:19:16;;;;;;;18.88;3.83;;;;;;;;;;5036012;28;20416;-68
2022/03/03 14:21:42;;;;;;;15.63;3.63;;;;;;;;;;5054532;28;20082;-68
2022/03/03 14:24:08;;;;;;;13.07;2.72;;;;;;;;;;5053316;28;20028;-68
2022/03/03 14:26:34;;;;;;;15.10;3.10;;;;;;;;;;5054082;28;20470;-68
2022/03/03 14:29:00;;;;;;;11.93;3.78;;;;;;;;;;5053500;28;20025;-68
2022/03/03 14:31:26;;;;;;;11.32;3.20;;;;;;;;;;5053485;28;20032;-71
2022/03/03 14:33:52;;;;;;;14.73;3.63;;;;;;;;;;5053224;28;20017;-71
2022/03/03 14:36:19;;;;;;;11.95;2.97;;;;;;;;;;5036288;28;20453;-71
2022/03/03 14:38:46;;;;;;;12.43;2.90;;;;;;;;;;5053476;28;20025;-70
2022/03/03 14:41:12;;;;;;;16.08;3.10;;;;;;;;;;5053804;28;20501;-70